Time;durP1;ratioP1;P1;durP2;ratioP2;P2;SDS_P1;SDS_P2;PMS_P1;PMS_P2;Temp;Humidity;BMP_temperature;BMP_pressure;BME280_temperature;BME280_humidity;BME280_pressure;Samples;Min_cycle;Max_cycle;Signal;HPM_P1;HPM_P2
2023/02/21 02:14:45;;;;;;;2.57;1.53;;;;;;;11.49;75.29;101492.97;2069379;28;20976;-64
2023/02/21 02:15:54;;;;;;;2.70;1.90;;;;;;;11.49;74.75;101486.63;2063336;28;20425;-64
2023/02/21 02:17:00;;;;;;;2.60;1.80;;;;;;;11.57;74.21;101493.63;2063297;28;20496;-64
2023/02/21 02:18:06;;;;;;;2.83;1.50;;;;;;;11.60;73.56;101493.63;2071600;28;20954;-64
2023/02/21 02:19:13;;;;;;;2.20;1.60;;;;;;;11.63;73.22;101495.56;2071816;28;20965;-64
2023/02/21 02:20:38;;;;;;;2.63;1.60;;;;;;;11.70;72.29;101486.34;2071872;28;20954;-64
2023/02/21 02:21:54;;;;;;;6.87;2.00;;;;;;;11.73;72.06;101482.75;2065634;28;21018;-64
2023/02/21 02:23:13;;;;;;;2.33;1.70;;;;;;;11.74;71.77;101490.63;2064331;28;20413;-64
2023/02/21 02:24:31;;;;;;;3.30;1.60;;;;;;;11.82;70.45;101486.56;2069307;28;20479;-65
2023/02/21 02:26:06;;;;;;;2.53;1.80;;;;;;;11.86;70.47;101486.50;2065928;28;20452;-64
2023/02/21 02:27:31;;;;;;;1.93;1.43;;;;;;;11.90;69.81;101501.91;2071051;28;20444;-64
2023/02/21 02:28:50;;;;;;;4.43;1.60;;;;;;;11.84;69.45;101488.91;2064132;28;20421;-64
2023/02/21 02:30:13;;;;;;;4.73;1.83;;;;;;;11.83;69.79;101487.34;2064649;28;20844;-65
2023/02/21 02:31:19;;;;;;;3.07;1.70;;;;;;;11.83;69.72;101498.47;2071771;28;20813;-64
2023/02/21 02:32:37;;;;;;;2.93;1.63;;;;;;;11.85;69.69;101498.81;2068922;28;20518;-64
2023/02/21 02:33:49;;;;;;;2.47;1.60;;;;;;;11.81;70.00;101501.66;2067280;28;20910;-65
2023/02/21 02:35:26;;;;;;;3.30;1.60;;;;;;;11.79;70.03;101490.16;2067234;28;20441;-65
2023/02/21 02:36:39;;;;;;;2.50;1.73;;;;;;;11.07;69.71;101368.66;2069877;28;20452;-64
2023/02/21 02:37:55;;;;;;;2.13;1.57;;;;;;;11.83;69.27;101490.13;2064694;28;20464;-64
2023/02/21 02:39:14;;;;;;;2.10;1.50;;;;;;;11.88;69.20;101484.09;2063439;28;20416;-64
2023/02/21 02:40:20;;;;;;;4.27;1.90;;;;;;;11.91;69.15;101491.56;2070298;28;20416;-64
2023/02/21 02:41:34;;;;;;;3.23;1.70;;;;;;;11.91;69.18;101486.00;2064598;28;20413;-65
2023/02/21 02:43:01;;;;;;;2.90;1.80;;;;;;;11.73;69.16;101475.19;2070478;28;20445;-64
2023/02/21 02:44:17;;;;;;;2.90;1.73;;;;;;;11.87;68.77;101499.16;2067312;28;20537;-64
2023/02/21 02:45:29;;;;;;;4.13;1.63;;;;;;;11.92;68.82;101501.47;2071165;28;20443;-64
2023/02/21 02:46:32;;;;;;;2.40;1.70;;;;;;;11.85;68.67;101496.03;2072737;28;20451;-64
2023/02/21 02:47:36;;;;;;;3.60;1.97;;;;;;;11.87;68.85;101496.38;2073142;28;20440;-64
2023/02/21 02:48:42;;;;;;;2.77;1.83;;;;;;;11.94;68.44;101488.72;2069305;28;20534;-65
2023/02/21 02:49:45;;;;;;;3.80;2.03;;;;;;;11.93;68.35;101491.97;2068363;28;20441;-64
2023/02/21 02:50:49;;;;;;;2.03;1.57;;;;;;;11.96;68.10;101491.91;2073015;28;20439;-65
2023/02/21 02:51:51;;;;;;;2.33;1.50;;;;;;;11.05;68.08;101353.66;2073313;28;20434;-64
2023/02/21 02:52:53;;;;;;;2.90;1.70;;;;;;;11.59;68.45;101442.06;2072907;28;20448;-64
2023/02/21 02:53:54;;;;;;;2.43;1.73;;;;;;;10.81;68.81;101330.59;2072556;28;20500;-64
2023/02/21 02:55:04;;;;;;;2.33;1.60;;;;;;;11.85;69.06;101488.50;2072224;28;20828;-64
2023/02/21 02:56:09;;;;;;;3.03;1.77;;;;;;;11.82;69.25;101488.53;2065274;28;20553;-64
2023/02/21 02:57:11;;;;;;;2.27;1.63;;;;;;;11.82;69.48;101486.56;2072828;28;20441;-64
2023/02/21 02:58:12;;;;;;;3.07;1.70;;;;;;;11.53;69.52;101446.50;2072736;28;21080;-64
2023/02/21 02:59:19;;;;;;;3.37;2.00;;;;;;;11.83;69.76;101484.56;2072758;28;20448;-65
2023/02/21 03:00:21;;;;;;;2.23;1.70;;;;;;;11.40;69.39;101419.72;2072363;28;20475;-65
2023/02/21 03:01:43;;;;;;;2.77;1.63;;;;;;;11.88;69.01;101476.53;2073248;28;20528;-65
2023/02/21 03:03:00;;;;;;;3.03;1.60;;;;;;;11.89;68.71;101477.34;2073151;28;20209;-65
2023/02/21 03:04:39;;;;;;;3.43;1.90;;;;;;;11.72;69.17;101468.06;2072951;28;20456;-64
2023/02/21 03:05:58;;;;;;;3.77;1.93;;;;;;;11.80;69.08;101488.19;2077545;28;20828;-65
2023/02/21 03:07:23;;;;;;;3.43;1.90;;;;;;;11.74;69.36;101482.28;2068042;28;20532;-64
2023/02/21 03:08:37;;;;;;;3.20;1.90;;;;;;;11.74;69.31;101482.28;2073217;28;20937;-65
2023/02/21 03:09:58;;;;;;;4.03;2.30;;;;;;;11.68;69.72;101472.88;2072965;28;20937;-65
2023/02/21 03:11:21;;;;;;;5.17;2.10;;;;;;;11.27;70.26;101424.28;2072612;28;20447;-65
2023/02/21 03:12:50;;;;;;;3.00;1.67;;;;;;;11.51;69.73;101439.78;2065102;28;20472;-65
2023/02/21 03:14:14;;;;;;;3.57;1.93;;;;;;;11.69;69.56;101484.78;2070034;28;20829;-65
2023/02/21 03:15:23;;;;;;;2.87;1.90;;;;;;;11.25;69.73;101412.81;2068401;28;20484;-65
2023/02/21 03:16:46;;;;;;;4.87;2.07;;;;;;;11.64;69.87;101476.91;2072850;28;20493;-65
2023/02/21 03:18:14;;;;;;;3.03;2.00;;;;;;;11.65;69.61;101476.50;2073133;28;20720;-64
2023/02/21 03:19:29;;;;;;;2.43;1.63;;;;;;;11.67;69.38;101476.06;2065240;28;20419;-64
2023/02/21 03:20:32;;;;;;;3.10;1.70;;;;;;;11.66;69.36;101480.06;2072533;28;20415;-64
2023/02/21 03:21:50;;;;;;;4.70;2.10;;;;;;;10.96;69.64;101372.81;2071020;28;20988;-64
2023/02/21 03:22:53;;;;;;;4.10;1.70;;;;;;;10.82;70.35;101348.03;2071308;28;20419;-64
2023/02/21 03:23:57;;;;;;;2.97;1.97;;;;;;;11.63;69.83;101472.56;2065329;28;20924;-64
2023/02/21 03:25:00;;;;;;;5.90;2.00;;;;;;;11.60;70.13;101476.19;2072761;28;20483;-64
2023/02/21 03:26:05;;;;;;;3.10;2.00;;;;;;;11.59;70.02;101471.84;2064764;28;20855;-64
2023/02/21 03:27:07;;;;;;;2.73;1.90;;;;;;;11.61;70.08;101461.09;2072369;28;20867;-64
2023/02/21 03:28:08;;;;;;;4.00;1.77;;;;;;;11.62;70.19;101474.56;2073120;28;20451;-64
2023/02/21 03:29:09;;;;;;;3.37;1.93;;;;;;;10.87;70.18;101373.31;2072942;28;20484;-64
2023/02/21 03:30:11;;;;;;;2.43;1.73;;;;;;;11.63;70.04;101476.13;2072832;28;20247;-64
2023/02/21 03:31:15;;;;;;;4.00;2.10;;;;;;;11.66;69.79;101474.50;2072328;28;20662;-64
2023/02/21 03:33:35;;;;;;;3.20;1.67;;;;;;;11.67;70.47;101481.63;2069370;28;21033;-65
2023/02/21 03:34:40;;;;;;;3.10;1.90;;;;;;;11.25;69.70;101408.06;2072598;28;20837;-64
2023/02/21 03:35:41;;;;;;;4.30;2.20;;;;;;;11.68;69.55;101467.31;2071066;28;20729;-64
2023/02/21 03:36:42;;;;;;;3.30;2.00;;;;;;;11.67;69.45;101471.31;2071764;28;20894;-64
2023/02/21 03:37:48;;;;;;;5.53;1.83;;;;;;;11.75;69.67;101472.00;2072994;28;20178;-65
2023/02/21 03:38:48;;;;;;;3.53;2.10;;;;;;;11.03;69.36;101367.97;2072770;28;20425;-65
2023/02/21 03:39:49;;;;;;;3.47;1.90;;;;;;;11.68;69.63;101470.09;2073256;28;20456;-65
2023/02/21 03:40:49;;;;;;;3.50;2.10;;;;;;;11.73;69.45;101471.63;2072748;28;20255;-65
2023/02/21 03:41:49;;;;;;;3.03;1.80;;;;;;;11.68;69.65;101467.31;2066751;28;20372;-64
2023/02/21 03:42:51;;;;;;;6.63;2.10;;;;;;;11.68;69.43;101469.31;2068656;28;20205;-65
2023/02/21 03:43:52;;;;;;;3.30;2.10;;;;;;;11.73;69.57;101461.28;2072848;28;20189;-64
2023/02/21 03:44:52;;;;;;;3.07;1.90;;;;;;;11.71;69.49;101460.94;2071892;28;21198;-65
2023/02/21 03:45:53;;;;;;;3.73;1.80;;;;;;;11.60;69.39;101453.97;2071815;28;20612;-64
2023/02/21 03:46:53;;;;;;;2.67;1.90;;;;;;;11.67;69.38;101462.19;2072052;28;20193;-64
2023/02/21 03:47:54;;;;;;;3.17;2.00;;;;;;;11.61;69.58;101461.09;2073325;28;20186;-64
2023/02/21 03:48:54;;;;;;;3.00;2.10;;;;;;;11.68;69.68;101461.00;2072729;28;20181;-65
2023/02/21 03:49:55;;;;;;;3.47;1.90;;;;;;;11.69;69.38;101465.34;2066817;28;20198;-65
2023/02/21 03:50:55;;;;;;;3.73;2.07;;;;;;;11.62;69.21;101448.78;2069235;28;20194;-65
2023/02/21 03:51:55;;;;;;;4.43;1.80;;;;;;;11.71;69.80;101458.16;2072888;28;20220;-65
2023/02/21 03:52:56;;;;;;;5.93;2.17;;;;;;;11.70;69.43;101461.34;2071919;28;20493;-65
2023/02/21 03:53:56;;;;;;;2.63;1.70;;;;;;;11.72;69.21;101453.38;2072528;28;20743;-65
2023/02/21 03:54:57;;;;;;;3.93;1.93;;;;;;;11.68;69.74;101455.44;2072014;28;20178;-64
2023/02/21 03:55:57;;;;;;;3.13;1.90;;;;;;;11.46;69.45;101418.06;2072152;28;20184;-64
2023/02/21 03:56:58;;;;;;;2.30;1.80;;;;;;;11.59;69.63;101447.63;2071740;28;20694;-64
2023/02/21 03:57:58;;;;;;;3.93;2.00;;;;;;;11.58;69.51;101432.13;2072492;28;20201;-64
2023/02/21 03:58:58;;;;;;;3.73;1.70;;;;;;;11.70;69.62;101445.50;2067768;28;20233;-64
2023/02/21 03:59:59;;;;;;;3.40;2.00;;;;;;;11.58;69.56;101434.16;2067564;28;20672;-64
2023/02/21 04:01:00;;;;;;;3.10;1.90;;;;;;;11.61;69.55;101448.00;2071894;28;20264;-64
2023/02/21 04:02:00;;;;;;;3.00;1.80;;;;;;;11.65;70.25;101454.28;2072029;28;20188;-65
2023/02/21 04:03:01;;;;;;;3.93;2.00;;;;;;;11.56;70.55;101448.44;2063811;28;20301;-65
2023/02/21 04:04:01;;;;;;;3.57;2.00;;;;;;;11.48;70.45;101432.31;2071723;28;20193;-65
2023/02/21 04:05:02;;;;;;;3.73;2.07;;;;;;;11.57;70.32;101438.09;2071753;28;20295;-64
2023/02/21 04:06:03;;;;;;;2.97;1.90;;;;;;;11.59;70.30;101442.06;2071770;28;20198;-64
2023/02/21 04:07:03;;;;;;;3.47;1.90;;;;;;;11.51;69.62;101420.34;2072238;28;20259;-64
2023/02/21 04:08:04;;;;;;;5.10;2.07;;;;;;;11.58;69.78;101436.94;2069012;28;20198;-64
2023/02/21 04:09:04;;;;;;;3.47;1.97;;;;;;;11.11;70.05;101365.84;2067213;28;20201;-65
2023/02/21 04:10:05;;;;;;;3.90;2.20;;;;;;;11.48;70.30;101429.53;2072452;28;20206;-65
2023/02/21 04:11:06;;;;;;;3.20;1.90;;;;;;;11.59;70.13;101428.19;2072443;28;20185;-65
2023/02/21 04:12:06;;;;;;;5.90;2.20;;;;;;;11.56;69.97;101437.34;2072364;28;20194;-64
2023/02/21 04:13:08;;;;;;;4.00;2.40;;;;;;;10.94;69.53;101339.16;2071960;28;20734;-65
2023/02/21 04:14:09;;;;;;;5.37;2.33;;;;;;;11.56;70.13;101425.44;2070280;28;20281;-65
2023/02/21 04:15:10;;;;;;;4.50;2.20;;;;;;;11.59;69.82;101432.97;2071752;28;20851;-65
2023/02/21 04:16:11;;;;;;;3.83;1.80;;;;;;;11.59;69.86;101425.41;2071994;28;21012;-65
2023/02/21 04:17:11;;;;;;;3.37;2.00;;;;;;;11.32;69.49;101388.53;2069366;28;20937;-65
2023/02/21 04:18:12;;;;;;;3.37;1.90;;;;;;;11.68;68.89;101431.22;2066399;28;20179;-64
2023/02/21 04:19:12;;;;;;;3.93;1.83;;;;;;;10.89;68.71;101306.34;2072596;28;20212;-64
2023/02/21 04:20:14;;;;;;;3.07;1.87;;;;;;;11.76;68.14;101421.59;2072805;28;20215;-64
2023/02/21 04:21:17;;;;;;;3.77;1.73;;;;;;;11.78;68.05;101419.16;2072674;28;20228;-64
2023/02/21 04:22:18;;;;;;;3.63;2.00;;;;;;;11.85;67.73;101415.50;2072531;28;20849;-64
2023/02/21 04:23:19;;;;;;;3.43;2.00;;;;;;;11.87;67.51;101413.88;2072437;28;20531;-64
2023/02/21 04:24:20;;;;;;;5.43;2.10;;;;;;;11.31;67.27;101333.44;2067548;28;20571;-64
2023/02/21 04:25:20;;;;;;;5.30;2.20;;;;;;;10.64;67.48;101242.94;2066400;28;20531;-65
2023/02/21 04:26:22;;;;;;;5.27;2.10;;;;;;;11.82;67.82;101411.56;2069180;28;20273;-65
2023/02/21 04:27:23;;;;;;;5.13;2.20;;;;;;;10.82;67.20;101253.78;2065728;28;20170;-65
2023/02/21 04:28:23;;;;;;;3.57;1.90;;;;;;;11.87;67.43;101410.28;2071521;28;20433;-65
2023/02/21 04:29:24;;;;;;;4.77;2.00;;;;;;;11.46;67.09;101349.47;2072348;28;20263;-64
2023/02/21 04:30:25;;;;;;;3.57;2.33;;;;;;;11.86;67.21;101403.97;2072174;28;20331;-64
2023/02/21 04:31:26;;;;;;;2.53;1.80;;;;;;;11.87;67.01;101407.50;2066193;28;20441;-65
2023/02/21 04:32:26;;;;;;;2.83;2.20;;;;;;;11.95;66.95;101401.41;2069015;28;20581;-65
2023/02/21 04:33:26;;;;;;;3.40;2.13;;;;;;;11.39;66.06;101307.16;2072585;28;20268;-65
2023/02/21 04:34:27;;;;;;;3.17;1.83;;;;;;;12.04;66.33;101401.66;2072552;28;20678;-65
2023/02/21 04:35:28;;;;;;;3.60;2.20;;;;;;;11.98;66.18;101403.34;2070793;28;20185;-64
2023/02/21 04:36:29;;;;;;;3.17;2.17;;;;;;;12.01;65.90;101387.84;2071346;28;20174;-64
2023/02/21 04:37:29;;;;;;;3.23;2.00;;;;;;;11.98;66.14;101391.44;2072777;28;20265;-64
2023/02/21 04:38:30;;;;;;;3.27;2.00;;;;;;;11.97;66.03;101387.09;2071601;28;20201;-64
2023/02/21 04:39:30;;;;;;;2.80;2.10;;;;;;;11.94;65.62;101369.28;2071806;28;20746;-64
2023/02/21 04:40:31;;;;;;;3.80;1.90;;;;;;;12.04;65.60;101387.00;2068842;28;20209;-64
2023/02/21 04:41:32;;;;;;;5.83;2.40;;;;;;;12.02;65.46;101381.88;2071783;28;20640;-64
2023/02/21 04:42:32;;;;;;;4.40;1.93;;;;;;;12.10;65.25;101382.53;2071696;28;20204;-65
2023/02/21 04:43:32;;;;;;;2.70;1.70;;;;;;;12.06;65.02;101381.78;2066175;28;20186;-65
2023/02/21 04:44:33;;;;;;;4.17;2.10;;;;;;;12.12;65.11;101380.88;2072425;28;20432;-64
2023/02/21 04:45:33;;;;;;;3.17;1.90;;;;;;;12.21;64.62;101380.31;2071720;28;20651;-64
2023/02/21 04:46:34;;;;;;;4.07;1.93;;;;;;;12.17;64.26;101377.63;2071248;28;20248;-64
2023/02/21 04:47:34;;;;;;;3.53;1.97;;;;;;;12.15;64.44;101371.69;2071873;28;20570;-64
2023/02/21 04:48:35;;;;;;;4.63;2.10;;;;;;;12.08;64.45;101368.25;2072700;28;20542;-64
2023/02/21 04:49:35;;;;;;;4.10;2.13;;;;;;;12.27;63.82;101379.41;2072306;28;20292;-65
2023/02/21 04:50:35;;;;;;;3.40;1.97;;;;;;;12.14;63.56;101358.25;2072188;28;20201;-65
2023/02/21 04:51:36;;;;;;;4.90;1.90;;;;;;;11.74;64.04;101304.59;2072145;28;20264;-64
2023/02/21 04:52:39;;;;;;;4.57;2.20;;;;;;;12.15;64.16;101363.34;2072226;28;20544;-65
2023/02/21 04:53:40;;;;;;;3.10;2.00;;;;;;;11.64;64.06;101283.34;2072756;28;20206;-64
2023/02/21 04:54:40;;;;;;;4.43;1.97;;;;;;;12.22;63.62;101360.47;2072109;28;20479;-64
2023/02/21 04:55:41;;;;;;;3.57;2.20;;;;;;;12.23;63.95;101364.81;2065024;28;20706;-64
2023/02/21 04:56:41;;;;;;;4.80;1.90;;;;;;;11.97;64.01;101306.56;2068430;28;20209;-68
2023/02/21 04:57:42;;;;;;;3.40;2.00;;;;;;;12.35;63.58;101360.63;2070023;28;20291;-62
2023/02/21 04:58:42;;;;;;;5.17;2.00;;;;;;;12.33;62.87;101354.69;2070065;28;20718;-61
2023/02/21 04:59:43;;;;;;;5.00;2.17;;;;;;;12.34;62.69;101362.59;2070747;28;20186;-61
2023/02/21 05:00:43;;;;;;;6.97;2.17;;;;;;;12.31;63.09;101366.25;2071746;28;20184;-63
2023/02/21 05:01:43;;;;;;;3.83;2.10;;;;;;;12.36;62.82;101362.19;2069128;28;20196;-65
2023/02/21 05:02:44;;;;;;;3.07;2.10;;;;;;;12.37;62.41;101352.63;2070778;28;20223;-64
2023/02/21 05:03:45;;;;;;;2.77;2.00;;;;;;;11.59;62.49;101241.44;2070797;28;20198;-64
2023/02/21 05:04:46;;;;;;;4.80;1.90;;;;;;;12.41;62.02;101365.22;2070328;28;20182;-61
2023/02/21 05:05:46;;;;;;;3.63;2.40;;;;;;;12.13;61.87;101301.88;2070501;28;20661;-61
2023/02/21 05:06:47;;;;;;;4.00;1.93;;;;;;;12.49;62.07;101363.88;2069502;28;20722;-61
2023/02/21 05:07:47;;;;;;;3.70;2.07;;;;;;;12.50;61.62;101356.34;2070455;28;20264;-61
2023/02/21 05:08:48;;;;;;;3.83;1.97;;;;;;;12.54;61.45;101360.63;2069946;28;20215;-61
2023/02/21 05:09:49;;;;;;;3.77;2.13;;;;;;;12.52;61.48;101351.13;2071056;28;20193;-61
2023/02/21 05:10:49;;;;;;;3.13;1.90;;;;;;;12.61;61.24;101351.34;2071405;28;20422;-61
2023/02/21 05:11:49;;;;;;;3.37;1.70;;;;;;;12.61;60.87;101352.13;2070935;28;20214;-62
2023/02/21 05:12:50;;;;;;;3.20;1.83;;;;;;;12.64;60.62;101350.47;2070438;28;20229;-62
2023/02/21 05:13:51;;;;;;;3.50;2.00;;;;;;;12.66;60.32;101364.75;2070085;28;20209;-62
2023/02/21 05:14:52;;;;;;;3.50;1.80;;;;;;;12.68;60.13;101356.75;2070848;28;20570;-60
2023/02/21 05:15:53;;;;;;;4.90;2.27;;;;;;;11.88;59.90;101218.25;2070615;28;20451;-62
2023/02/21 05:16:53;;;;;;;3.17;2.00;;;;;;;12.45;59.77;101337.38;2070215;28;20188;-65
2023/02/21 05:17:53;;;;;;;6.63;2.30;;;;;;;12.73;59.65;101354.25;2070352;28;20178;-62
2023/02/21 05:18:54;;;;;;;3.77;2.10;;;;;;;12.75;59.40;101349.03;2071161;28;20183;-62
2023/02/21 05:19:55;;;;;;;4.40;2.10;;;;;;;12.79;58.88;101341.41;2069913;28;20221;-62
2023/02/21 05:20:55;;;;;;;6.77;2.33;;;;;;;12.86;58.74;101357.94;2070066;28;20190;-62
2023/02/21 05:21:58;;;;;;;5.73;2.20;;;;;;;12.83;58.85;101349.69;2071507;28;20194;-62
2023/02/21 05:22:58;;;;;;;3.57;1.83;;;;;;;12.86;58.56;101351.63;2070864;28;20651;-62
2023/02/21 05:23:59;;;;;;;3.97;2.17;;;;;;;12.85;58.75;101355.59;2070809;28;20449;-63
2023/02/21 05:24:59;;;;;;;3.00;1.77;;;;;;;12.84;58.67;101346.47;2070224;28;20198;-62
2023/02/21 05:26:08;;;;;;;2.53;1.67;;;;;;;12.82;58.62;101351.66;2069965;28;20222;-62
2023/02/21 05:27:14;;;;;;;5.03;1.93;;;;;;;12.41;58.65;101281.06;2069186;28;20245;-62
2023/02/21 05:28:14;;;;;;;3.87;2.23;;;;;;;12.93;58.48;101343.91;2068865;28;20519;-61
2023/02/21 05:29:15;;;;;;;3.57;2.20;;;;;;;12.96;58.02;101336.72;2069310;28;20505;-62
2023/02/21 05:30:18;;;;;;;3.00;2.33;;;;;;;12.98;57.97;101343.41;2069809;28;20281;-63
2023/02/21 05:31:19;;;;;;;5.77;2.33;;;;;;;12.99;58.17;101346.97;2068755;28;20742;-64
2023/02/21 05:32:20;;;;;;;2.83;1.93;;;;;;;13.07;57.95;101343.59;2067915;28;20535;-65
2023/02/21 05:33:21;;;;;;;13.40;2.57;;;;;;;13.13;57.52;101364.16;2069366;28;20716;-66
2023/02/21 05:34:21;;;;;;;4.30;1.90;;;;;;;13.07;57.36;101360.28;2068841;28;20803;-65
2023/02/21 05:35:22;;;;;;;3.97;1.90;;;;;;;13.10;57.55;101351.09;2066355;28;20328;-65
2023/02/21 05:36:25;;;;;;;4.20;2.10;;;;;;;13.04;57.66;101336.13;2070476;28;20193;-65
2023/02/21 05:37:25;;;;;;;4.27;1.90;;;;;;;13.07;57.38;101340.81;2069758;28;20294;-65
2023/02/21 05:38:26;;;;;;;3.40;2.20;;;;;;;13.15;57.42;101347.78;2067686;28;20488;-66
2023/02/21 05:39:26;;;;;;;3.30;2.00;;;;;;;13.17;57.32;101362.03;2063551;28;20212;-65
2023/02/21 05:40:27;;;;;;;2.57;1.77;;;;;;;13.17;57.23;101347.38;2066074;28;20776;-66
2023/02/21 05:41:27;;;;;;;3.10;1.90;;;;;;;13.22;57.23;101349.63;2044791;28;20239;-66
2023/02/21 05:42:27;;;;;;;3.80;1.90;;;;;;;13.25;56.92;101355.13;2065467;28;20272;-65
2023/02/21 05:43:32;;;;;;;2.57;1.77;;;;;;;13.24;56.97;101361.91;2065871;28;20592;-65
2023/02/21 05:44:33;;;;;;;4.10;2.30;;;;;;;12.73;56.87;101283.94;2070736;28;20197;-66
2023/02/21 05:45:33;;;;;;;4.90;2.20;;;;;;;13.26;56.72;101362.25;2066998;28;20549;-65
2023/02/21 05:46:34;;;;;;;2.70;1.90;;;;;;;12.47;56.93;101240.44;2067492;28;20204;-66
2023/02/21 05:47:34;;;;;;;4.60;2.10;;;;;;;13.14;57.12;101353.78;2064861;28;20198;-65
2023/02/21 05:48:35;;;;;;;4.10;2.03;;;;;;;13.16;57.22;101363.28;2067888;28;20245;-65
2023/02/21 05:49:35;;;;;;;4.73;1.70;;;;;;;13.20;57.03;101363.97;2067607;28;20197;-65
2023/02/21 05:50:38;;;;;;;5.53;2.23;;;;;;;13.20;57.20;101375.13;2067344;28;20208;-65
2023/02/21 05:51:41;;;;;;;4.70;2.20;;;;;;;13.15;57.33;101372.03;2039747;28;20236;-65
2023/02/21 05:52:42;;;;;;;10.23;2.37;;;;;;;12.88;57.30;101318.56;2066132;28;20455;-65
2023/02/21 05:53:43;;;;;;;7.70;2.40;;;;;;;13.29;56.97;101358.59;2064017;28;20495;-65
2023/02/21 05:54:43;;;;;;;12.33;2.30;;;;;;;13.28;56.95;101362.59;2058143;28;20856;-65
2023/02/21 05:55:44;;;;;;;2.87;1.70;;;;;;;13.37;56.79;101367.56;2066509;28;20685;-66
2023/02/21 05:56:47;;;;;;;3.13;1.80;;;;;;;12.17;56.46;101169.22;2070114;28;20219;-66
2023/02/21 05:57:47;;;;;;;7.17;2.73;;;;;;;13.44;56.19;101379.34;2066393;28;20354;-66
2023/02/21 05:58:48;;;;;;;5.33;2.03;;;;;;;13.19;56.15;101340.16;2053324;28;20451;-66
2023/02/21 05:59:48;;;;;;;3.90;1.90;;;;;;;12.92;56.58;101295.00;2066953;28;20196;-66
2023/02/21 06:00:50;;;;;;;3.17;2.00;;;;;;;13.45;56.72;101372.53;2067203;28;20332;-66
2023/02/21 06:01:51;;;;;;;5.17;2.00;;;;;;;13.48;56.42;101370.88;2064509;28;20198;-66
2023/02/21 06:02:51;;;;;;;2.67;1.73;;;;;;;12.76;55.79;101264.38;2061075;28;20457;-66
2023/02/21 06:03:52;;;;;;;5.43;2.17;;;;;;;13.57;55.67;101393.34;2064836;28;20227;-66
2023/02/21 06:04:52;;;;;;;2.47;1.70;;;;;;;13.57;55.62;101379.44;2062918;28;20576;-66
2023/02/21 06:05:53;;;;;;;4.90;2.13;;;;;;;13.61;55.53;101391.25;2065206;28;20203;-66
2023/02/21 06:06:53;;;;;;;3.53;1.90;;;;;;;13.52;55.59;101382.75;2064549;28;20227;-66
2023/02/21 06:07:54;;;;;;;5.07;2.10;;;;;;;12.70;56.02;101266.13;2065972;28;20199;-66
2023/02/21 06:08:54;;;;;;;5.10;1.90;;;;;;;13.59;56.31;101400.06;2069012;28;20620;-66
2023/02/21 06:09:55;;;;;;;2.50;1.70;;;;;;;13.64;55.74;101393.19;2066293;28;20185;-65
2023/02/21 06:10:56;;;;;;;3.27;1.83;;;;;;;13.67;55.28;101400.66;2066886;28;20994;-66
2023/02/21 06:11:56;;;;;;;6.83;1.93;;;;;;;13.54;54.76;101374.72;2064980;28;20914;-66
2023/02/21 06:12:57;;;;;;;6.47;2.80;;;;;;;13.62;54.87;101367.78;2058642;28;27826;-66
2023/02/21 06:14:00;;;;;;;6.03;2.43;;;;;;;13.83;54.78;101407.00;2063519;28;20308;-66
2023/02/21 06:15:00;;;;;;;3.53;2.13;;;;;;;13.31;54.42;101331.09;2064715;28;20437;-66
2023/02/21 06:16:01;;;;;;;10.10;2.60;;;;;;;13.75;54.28;101399.25;2065315;28;20462;-66
2023/02/21 06:17:02;;;;;;;11.00;4.47;;;;;;;13.50;54.25;101360.09;2064200;28;20555;-66
2023/02/21 06:18:02;;;;;;;6.70;2.97;;;;;;;13.17;54.58;101317.53;2026114;28;20213;-66
2023/02/21 06:19:05;;;;;;;6.37;2.10;;;;;;;13.43;53.99;101343.56;2066474;28;20250;-66
2023/02/21 06:20:17;;;;;;;8.90;4.27;;;;;;;13.89;54.19;101410.06;2067068;28;20200;-66
2023/02/21 06:21:18;;;;;;;5.67;1.97;;;;;;;13.88;54.02;101417.63;2067496;28;20427;-67
2023/02/21 06:22:18;;;;;;;7.57;4.20;;;;;;;13.94;54.02;101407.53;2068828;28;20460;-66
2023/02/21 06:23:18;;;;;;;7.90;4.30;;;;;;;13.87;54.04;101409.69;2067253;28;20646;-67
2023/02/21 06:24:19;;;;;;;4.33;2.13;;;;;;;13.81;54.08;101401.09;2067579;28;20207;-66
2023/02/21 06:25:19;;;;;;;5.53;2.50;;;;;;;13.89;54.09;101426.78;2067323;28;20315;-66
2023/02/21 06:26:21;;;;;;;3.90;2.00;;;;;;;13.92;54.29;101432.25;2067688;28;20355;-66
2023/02/21 06:27:21;;;;;;;2.60;1.73;;;;;;;13.96;54.04;101430.19;2067410;28;20267;-67
2023/02/21 06:28:29;;;;;;;7.40;2.23;;;;;;;13.99;53.87;101432.09;2069735;28;20576;-66
2023/02/21 06:29:30;;;;;;;3.50;1.77;;;;;;;14.01;53.75;101426.88;2069303;28;20200;-66
2023/02/21 06:30:30;;;;;;;5.13;1.90;;;;;;;13.54;53.68;101353.25;2067497;28;20446;-66
2023/02/21 06:31:31;;;;;;;2.90;1.90;;;;;;;13.72;53.63;101372.28;2067015;28;20698;-66
2023/02/21 06:32:31;;;;;;;3.30;1.90;;;;;;;13.90;53.73;101412.44;2065231;28;20303;-67
2023/02/21 06:33:32;;;;;;;2.67;1.90;;;;;;;14.10;53.28;101434.63;2061166;28;20217;-67
2023/02/21 06:34:33;;;;;;;5.03;1.90;;;;;;;14.18;53.31;101430.41;2068845;28;20541;-66
2023/02/21 06:35:34;;;;;;;2.73;1.90;;;;;;;13.64;53.21;101354.97;2068047;28;20238;-66
2023/02/21 06:36:34;;;;;;;3.27;1.80;;;;;;;14.23;52.74;101433.50;2066222;28;20451;-66
2023/02/21 06:37:35;;;;;;;3.97;2.07;;;;;;;13.31;52.74;101297.72;2065447;28;20802;-66
2023/02/21 06:38:35;;;;;;;4.23;2.17;;;;;;;14.18;52.90;101435.97;2067215;28;20411;-66
2023/02/21 06:39:38;;;;;;;3.73;2.00;;;;;;;14.20;52.82;101431.56;2067187;28;20251;-66
2023/02/21 06:40:38;;;;;;;3.83;1.93;;;;;;;14.30;52.50;101450.03;2069940;28;20197;-67
2023/02/21 06:41:38;;;;;;;4.77;1.90;;;;;;;14.20;52.70;101419.66;2068570;28;20436;-66
2023/02/21 06:42:39;;;;;;;3.77;2.00;;;;;;;14.25;52.28;101442.19;2066859;28;20655;-66
2023/02/21 06:43:39;;;;;;;4.33;2.03;;;;;;;14.42;52.33;101435.38;2067349;28;20212;-66
2023/02/21 06:44:44;;;;;;;4.47;1.90;;;;;;;14.18;52.34;101394.97;2067672;28;20205;-66
2023/02/21 06:45:45;;;;;;;5.10;2.03;;;;;;;14.38;52.21;101423.53;2065946;28;20203;-66
2023/02/21 06:46:49;;;;;;;3.03;1.83;;;;;;;14.46;52.24;101443.66;2070745;28;20427;-66
2023/02/21 06:47:49;;;;;;;2.53;1.80;;;;;;;13.39;51.97;101257.34;2065996;28;20213;-66
2023/02/21 06:48:50;;;;;;;8.07;2.60;;;;;;;14.51;52.38;101451.47;2065833;28;20551;-67
2023/02/21 06:49:50;;;;;;;10.13;7.13;;;;;;;14.58;52.20;101442.91;2070701;28;20193;-66
2023/02/21 06:50:51;;;;;;;3.43;2.03;;;;;;;14.51;51.90;101438.31;2067994;28;20193;-66
2023/02/21 06:51:51;;;;;;;2.77;1.83;;;;;;;14.04;52.01;101359.09;2066976;28;20280;-66
2023/02/21 06:52:51;;;;;;;3.83;1.90;;;;;;;14.59;51.95;101464.78;2066372;28;20193;-66
2023/02/21 06:53:52;;;;;;;3.10;2.00;;;;;;;14.64;51.84;101439.16;2067040;28;20593;-66
2023/02/21 06:54:52;;;;;;;3.50;2.00;;;;;;;14.68;51.81;101445.44;2067700;28;20200;-66
2023/02/21 06:55:53;;;;;;;2.50;1.87;;;;;;;14.66;51.63;101438.72;2070299;28;20733;-66
2023/02/21 06:56:53;;;;;;;5.30;1.90;;;;;;;14.66;51.70;101436.69;2067374;28;20678;-66
2023/02/21 06:57:54;;;;;;;3.57;1.90;;;;;;;14.45;51.79;101403.03;2066698;28;20693;-66
2023/02/21 06:58:54;;;;;;;3.07;1.80;;;;;;;14.42;51.84;101389.97;2066635;28;20201;-66
2023/02/21 06:59:55;;;;;;;3.03;1.90;;;;;;;14.80;51.74;101444.69;2067859;28;20191;-66
2023/02/21 07:00:55;;;;;;;2.80;1.77;;;;;;;14.80;51.86;101436.31;2068156;28;20188;-66
2023/02/21 07:01:56;;;;;;;3.23;1.70;;;;;;;14.84;51.53;101434.22;2069932;28;20281;-66
2023/02/21 07:02:56;;;;;;;2.90;1.70;;;;;;;14.91;51.42;101433.22;2065279;28;20492;-66
2023/02/21 07:03:57;;;;;;;4.37;2.10;;;;;;;14.30;50.88;101330.13;2066039;28;20194;-66
2023/02/21 07:04:58;;;;;;;3.47;2.27;;;;;;;15.02;50.50;101439.28;2064871;28;20211;-66
2023/02/21 07:05:58;;;;;;;7.13;2.80;;;;;;;15.00;50.79;101445.31;2063999;28;20235;-66
2023/02/21 07:06:59;;;;;;;3.83;2.07;;;;;;;15.00;50.75;101436.13;2066967;28;20204;-66
2023/02/21 07:08:00;;;;;;;3.60;1.80;;;;;;;15.11;50.52;101456.94;2065614;28;20267;-66
2023/02/21 07:09:01;;;;;;;2.70;1.67;;;;;;;15.18;50.20;101447.56;2063557;28;20212;-66
2023/02/21 07:10:01;;;;;;;2.60;1.70;;;;;;;14.95;49.83;101395.59;2066075;28;20461;-66
2023/02/21 07:11:02;;;;;;;6.53;2.20;;;;;;;15.17;49.55;101420.88;2064926;28;20210;-66